sensor_id;sensor_type;location;lat;lon;timestamp;temperature;humidity
612;DHT22;293;53.888;11.464;2022-08-11T00:01:44;17.90;98.40
612;DHT22;293;53.888;11.464;2022-08-11T00:04:13;17.90;98.50
612;DHT22;293;53.888;11.464;2022-08-11T00:06:42;17.90;98.60
612;DHT22;293;53.888;11.464;2022-08-11T00:09:11;17.90;98.50
612;DHT22;293;53.888;11.464;2022-08-11T00:11:44;17.90;98.50
612;DHT22;293;53.888;11.464;2022-08-11T00:14:17;17.90;98.50
612;DHT22;293;53.888;11.464;2022-08-11T00:16:53;17.80;98.50
612;DHT22;293;53.888;11.464;2022-08-11T00:19:26;17.80;98.60
612;DHT22;293;53.888;11.464;2022-08-11T00:21:55;17.70;98.50
612;DHT22;293;53.888;11.464;2022-08-11T00:24:23;17.70;98.70
612;DHT22;293;53.888;11.464;2022-08-11T00:26:52;17.60;98.80
612;DHT22;293;53.888;11.464;2022-08-11T00:29:20;17.60;99.00
612;DHT22;293;53.888;11.464;2022-08-11T00:31:51;17.60;98.90
612;DHT22;293;53.888;11.464;2022-08-11T00:34:22;17.60;98.90
612;DHT22;293;53.888;11.464;2022-08-11T00:36:52;17.50;99.00
612;DHT22;293;53.888;11.464;2022-08-11T00:39:21;17.50;99.10
612;DHT22;293;53.888;11.464;2022-08-11T00:42:03;17.50;99.20
612;DHT22;293;53.888;11.464;2022-08-11T00:44:41;17.40;99.10
612;DHT22;293;53.888;11.464;2022-08-11T00:47:17;17.40;99.30
612;DHT22;293;53.888;11.464;2022-08-11T00:50:03;17.40;99.30
612;DHT22;293;53.888;11.464;2022-08-11T00:52:48;17.40;99.40
612;DHT22;293;53.888;11.464;2022-08-11T01:01:33;17.30;99.80
612;DHT22;293;53.888;11.464;2022-08-11T01:04:44;17.20;99.80
612;DHT22;293;53.888;11.464;2022-08-11T01:07:48;17.20;99.90
612;DHT22;293;53.888;11.464;2022-08-11T01:10:41;17.20;99.90
612;DHT22;293;53.888;11.464;2022-08-11T01:13:15;17.20;99.90
612;DHT22;293;53.888;11.464;2022-08-11T01:16:33;17.10;99.90
612;DHT22;293;53.888;11.464;2022-08-11T01:19:50;17.10;99.90
612;DHT22;293;53.888;11.464;2022-08-11T01:22:54;17.10;99.90
612;DHT22;293;53.888;11.464;2022-08-11T01:26:08;17.10;99.90
612;DHT22;293;53.888;11.464;2022-08-11T01:32:31;17.10;99.90
612;DHT22;293;53.888;11.464;2022-08-11T01:35:26;17.10;99.90
612;DHT22;293;53.888;11.464;2022-08-11T01:38:41;17.10;99.90
612;DHT22;293;53.888;11.464;2022-08-11T01:44:40;17.00;99.90
612;DHT22;293;53.888;11.464;2022-08-11T01:47:22;17.00;99.90
612;DHT22;293;53.888;11.464;2022-08-11T01:50:14;17.00;99.90
612;DHT22;293;53.888;11.464;2022-08-11T01:52:55;16.90;99.90
612;DHT22;293;53.888;11.464;2022-08-11T01:55:30;16.90;99.90
612;DHT22;293;53.888;11.464;2022-08-11T01:58:06;16.90;99.90
612;DHT22;293;53.888;11.464;2022-08-11T02:00:47;16.90;99.90
612;DHT22;293;53.888;11.464;2022-08-11T02:03:22;16.90;99.90
612;DHT22;293;53.888;11.464;2022-08-11T02:05:59;16.80;99.90
612;DHT22;293;53.888;11.464;2022-08-11T02:08:57;16.80;99.90
612;DHT22;293;53.888;11.464;2022-08-11T02:11:26;16.80;99.90
612;DHT22;293;53.888;11.464;2022-08-11T02:14:01;16.80;99.90
612;DHT22;293;53.888;11.464;2022-08-11T02:16:39;16.80;99.90
612;DHT22;293;53.888;11.464;2022-08-11T02:19:17;16.80;99.90
612;DHT22;293;53.888;11.464;2022-08-11T02:22:08;16.70;99.90
612;DHT22;293;53.888;11.464;2022-08-11T02:25:01;16.70;99.90
612;DHT22;293;53.888;11.464;2022-08-11T02:27:35;16.70;99.90
612;DHT22;293;53.888;11.464;2022-08-11T02:30:07;16.60;99.90
612;DHT22;293;53.888;11.464;2022-08-11T02:32:40;16.60;99.90
612;DHT22;293;53.888;11.464;2022-08-11T02:35:36;16.60;99.90
612;DHT22;293;53.888;11.464;2022-08-11T02:38:17;16.60;99.90
612;DHT22;293;53.888;11.464;2022-08-11T02:40:56;16.60;99.90
612;DHT22;293;53.888;11.464;2022-08-11T02:43:39;16.60;99.90
612;DHT22;293;53.888;11.464;2022-08-11T02:46:19;16.50;99.90
612;DHT22;293;53.888;11.464;2022-08-11T02:48:58;16.50;99.90
612;DHT22;293;53.888;11.464;2022-08-11T02:51:54;16.50;99.90
612;DHT22;293;53.888;11.464;2022-08-11T02:54:28;16.50;99.90
612;DHT22;293;53.888;11.464;2022-08-11T02:57:04;16.40;99.90
612;DHT22;293;53.888;11.464;2022-08-11T02:59:46;16.40;99.90
612;DHT22;293;53.888;11.464;2022-08-11T03:02:34;16.40;99.90
612;DHT22;293;53.888;11.464;2022-08-11T03:05:14;16.30;99.90
612;DHT22;293;53.888;11.464;2022-08-11T03:07:58;16.30;99.90
612;DHT22;293;53.888;11.464;2022-08-11T03:10:34;16.30;99.90
612;DHT22;293;53.888;11.464;2022-08-11T03:13:23;16.30;99.90
612;DHT22;293;53.888;11.464;2022-08-11T03:16:15;16.20;99.90
612;DHT22;293;53.888;11.464;2022-08-11T03:19:09;16.20;99.90
612;DHT22;293;53.888;11.464;2022-08-11T03:21:44;16.20;99.90
612;DHT22;293;53.888;11.464;2022-08-11T03:24:15;16.20;99.90
612;DHT22;293;53.888;11.464;2022-08-11T03:26:54;16.20;99.90
612;DHT22;293;53.888;11.464;2022-08-11T03:29:34;16.20;99.90
612;DHT22;293;53.888;11.464;2022-08-11T03:32:08;16.10;99.90
612;DHT22;293;53.888;11.464;2022-08-11T03:34:38;16.10;99.90
612;DHT22;293;53.888;11.464;2022-08-11T03:40:40;16.10;99.90
612;DHT22;293;53.888;11.464;2022-08-11T03:43:48;16.00;99.90
612;DHT22;293;53.888;11.464;2022-08-11T03:46:31;16.10;99.90
612;DHT22;293;53.888;11.464;2022-08-11T03:49:05;16.00;99.90
612;DHT22;293;53.888;11.464;2022-08-11T03:51:46;16.00;99.90
612;DHT22;293;53.888;11.464;2022-08-11T03:54:27;16.00;99.90
612;DHT22;293;53.888;11.464;2022-08-11T03:57:25;16.00;99.90
612;DHT22;293;53.888;11.464;2022-08-11T04:00:18;16.00;99.90
612;DHT22;293;53.888;11.464;2022-08-11T04:06:32;16.00;99.90
612;DHT22;293;53.888;11.464;2022-08-11T04:09:36;16.10;99.90
612;DHT22;293;53.888;11.464;2022-08-11T04:12:23;16.10;99.90
612;DHT22;293;53.888;11.464;2022-08-11T04:15:18;16.20;99.90
612;DHT22;293;53.888;11.464;2022-08-11T04:18:29;16.30;99.90
612;DHT22;293;53.888;11.464;2022-08-11T04:21:20;16.70;99.90
612;DHT22;293;53.888;11.464;2022-08-11T04:24:15;17.20;99.90
612;DHT22;293;53.888;11.464;2022-08-11T04:30:00;19.80;99.90
612;DHT22;293;53.888;11.464;2022-08-11T04:32:55;21.30;98.70
612;DHT22;293;53.888;11.464;2022-08-11T04:35:46;22.80;95.60
612;DHT22;293;53.888;11.464;2022-08-11T04:38:47;23.90;92.50
612;DHT22;293;53.888;11.464;2022-08-11T04:47:52;27.60;79.80
612;DHT22;293;53.888;11.464;2022-08-11T04:51:01;28.70;75.80
612;DHT22;293;53.888;11.464;2022-08-11T04:53:59;29.90;71.60
612;DHT22;293;53.888;11.464;2022-08-11T04:56:48;31.10;68.00
612;DHT22;293;53.888;11.464;2022-08-11T04:59:52;32.20;64.80
612;DHT22;293;53.888;11.464;2022-08-11T05:09:33;35.70;56.20
612;DHT22;293;53.888;11.464;2022-08-11T05:12:25;36.70;53.40
612;DHT22;293;53.888;11.464;2022-08-11T05:14:55;37.30;51.60
612;DHT22;293;53.888;11.464;2022-08-11T05:17:44;37.90;50.30
612;DHT22;293;53.888;11.464;2022-08-11T05:20:29;38.50;49.10
612;DHT22;293;53.888;11.464;2022-08-11T05:23:14;39.00;48.20
612;DHT22;293;53.888;11.464;2022-08-11T05:26:02;39.50;47.50
612;DHT22;293;53.888;11.464;2022-08-11T05:28:52;39.80;45.90
612;DHT22;293;53.888;11.464;2022-08-11T05:31:39;39.90;45.20
612;DHT22;293;53.888;11.464;2022-08-11T05:34:27;39.80;45.10
612;DHT22;293;53.888;11.464;2022-08-11T05:37:16;39.90;45.30
612;DHT22;293;53.888;11.464;2022-08-11T05:39:47;39.80;45.00
612;DHT22;293;53.888;11.464;2022-08-11T05:42:35;39.60;45.00
612;DHT22;293;53.888;11.464;2022-08-11T05:45:21;39.70;45.40
612;DHT22;293;53.888;11.464;2022-08-11T05:48:07;39.80;45.30
612;DHT22;293;53.888;11.464;2022-08-11T05:50:53;39.90;45.20
612;DHT22;293;53.888;11.464;2022-08-11T05:53:51;40.10;44.30
612;DHT22;293;53.888;11.464;2022-08-11T05:56:42;40.30;42.90
612;DHT22;293;53.888;11.464;2022-08-11T05:59:16;40.50;42.30
612;DHT22;293;53.888;11.464;2022-08-11T06:01:44;40.40;41.20
612;DHT22;293;53.888;11.464;2022-08-11T06:04:16;40.50;42.00
612;DHT22;293;53.888;11.464;2022-08-11T06:06:52;40.60;40.70
612;DHT22;293;53.888;11.464;2022-08-11T06:09:27;40.50;41.10
612;DHT22;293;53.888;11.464;2022-08-11T06:11:58;40.50;41.70
612;DHT22;293;53.888;11.464;2022-08-11T06:14:28;40.50;41.60
612;DHT22;293;53.888;11.464;2022-08-11T06:16:58;40.60;41.30
612;DHT22;293;53.888;11.464;2022-08-11T06:19:37;40.70;41.50
612;DHT22;293;53.888;11.464;2022-08-11T06:22:07;40.60;39.40
612;DHT22;293;53.888;11.464;2022-08-11T06:24:37;40.50;40.90
612;DHT22;293;53.888;11.464;2022-08-11T06:27:06;40.50;40.90
612;DHT22;293;53.888;11.464;2022-08-11T06:29:36;40.50;41.60
612;DHT22;293;53.888;11.464;2022-08-11T06:32:06;40.50;41.80
612;DHT22;293;53.888;11.464;2022-08-11T06:34:47;40.30;41.30
612;DHT22;293;53.888;11.464;2022-08-11T06:37:22;40.00;41.50
612;DHT22;293;53.888;11.464;2022-08-11T06:40:01;39.40;41.20
612;DHT22;293;53.888;11.464;2022-08-11T06:42:50;39.00;41.20
612;DHT22;293;53.888;11.464;2022-08-11T06:45:30;37.50;42.30
612;DHT22;293;53.888;11.464;2022-08-11T06:47:58;35.60;44.10
612;DHT22;293;53.888;11.464;2022-08-11T06:50:28;34.00;47.40
612;DHT22;293;53.888;11.464;2022-08-11T06:53:16;32.50;49.60
612;DHT22;293;53.888;11.464;2022-08-11T06:55:47;30.90;52.60
612;DHT22;293;53.888;11.464;2022-08-11T06:58:31;29.70;54.90
612;DHT22;293;53.888;11.464;2022-08-11T07:01:23;28.50;57.30
612;DHT22;293;53.888;11.464;2022-08-11T07:04:02;27.40;59.30
612;DHT22;293;53.888;11.464;2022-08-11T07:06:40;26.70;61.60
612;DHT22;293;53.888;11.464;2022-08-11T07:09:48;26.10;63.60
612;DHT22;293;53.888;11.464;2022-08-11T07:12:40;25.50;65.00
612;DHT22;293;53.888;11.464;2022-08-11T07:15:30;25.00;66.50
612;DHT22;293;53.888;11.464;2022-08-11T07:18:19;24.80;68.90
612;DHT22;293;53.888;11.464;2022-08-11T07:21:13;24.60;69.40
612;DHT22;293;53.888;11.464;2022-08-11T07:24:01;24.40;69.20
612;DHT22;293;53.888;11.464;2022-08-11T07:26:50;24.20;69.70
612;DHT22;293;53.888;11.464;2022-08-11T07:29:37;23.90;71.30
612;DHT22;293;53.888;11.464;2022-08-11T07:32:13;23.80;70.30
612;DHT22;293;53.888;11.464;2022-08-11T07:34:47;23.70;70.50
612;DHT22;293;53.888;11.464;2022-08-11T07:37:18;23.70;72.00
612;DHT22;293;53.888;11.464;2022-08-11T07:39:47;23.70;71.50
612;DHT22;293;53.888;11.464;2022-08-11T07:42:16;23.60;70.90
612;DHT22;293;53.888;11.464;2022-08-11T07:44:47;23.70;71.20
612;DHT22;293;53.888;11.464;2022-08-11T07:47:34;23.70;71.30
612;DHT22;293;53.888;11.464;2022-08-11T07:50:21;23.70;71.50
612;DHT22;293;53.888;11.464;2022-08-11T07:53:07;23.70;71.70
612;DHT22;293;53.888;11.464;2022-08-11T07:55:34;23.80;72.00
612;DHT22;293;53.888;11.464;2022-08-11T07:58:03;23.80;72.20
612;DHT22;293;53.888;11.464;2022-08-11T08:00:51;23.80;72.90
612;DHT22;293;53.888;11.464;2022-08-11T08:03:36;23.90;73.00
612;DHT22;293;53.888;11.464;2022-08-11T08:06:23;23.90;74.00
612;DHT22;293;53.888;11.464;2022-08-11T08:09:09;23.90;74.00
612;DHT22;293;53.888;11.464;2022-08-11T08:11:55;24.00;74.30
612;DHT22;293;53.888;11.464;2022-08-11T08:14:39;23.90;73.50
612;DHT22;293;53.888;11.464;2022-08-11T08:17:24;24.00;73.40
612;DHT22;293;53.888;11.464;2022-08-11T08:20:11;24.00;71.90
612;DHT22;293;53.888;11.464;2022-08-11T08:22:40;24.10;72.70
612;DHT22;293;53.888;11.464;2022-08-11T08:25:08;24.10;72.00
612;DHT22;293;53.888;11.464;2022-08-11T08:27:36;24.10;72.40
612;DHT22;293;53.888;11.464;2022-08-11T08:30:05;24.20;74.10
612;DHT22;293;53.888;11.464;2022-08-11T08:32:50;24.30;73.50
612;DHT22;293;53.888;11.464;2022-08-11T08:35:18;24.30;73.80
612;DHT22;293;53.888;11.464;2022-08-11T08:37:48;24.50;74.00
612;DHT22;293;53.888;11.464;2022-08-11T08:40:17;24.60;73.20
612;DHT22;293;53.888;11.464;2022-08-11T08:42:47;24.70;72.80
612;DHT22;293;53.888;11.464;2022-08-11T08:45:16;24.70;72.20
612;DHT22;293;53.888;11.464;2022-08-11T08:47:46;24.70;72.10
612;DHT22;293;53.888;11.464;2022-08-11T08:50:16;24.70;72.20
612;DHT22;293;53.888;11.464;2022-08-11T08:52:49;24.60;72.10
612;DHT22;293;53.888;11.464;2022-08-11T08:55:19;24.60;72.00
612;DHT22;293;53.888;11.464;2022-08-11T08:57:48;24.60;72.40
612;DHT22;293;53.888;11.464;2022-08-11T09:00:16;24.70;72.40
612;DHT22;293;53.888;11.464;2022-08-11T09:02:44;24.70;71.80
612;DHT22;293;53.888;11.464;2022-08-11T09:05:11;24.70;71.60
612;DHT22;293;53.888;11.464;2022-08-11T09:07:39;24.80;70.80
612;DHT22;293;53.888;11.464;2022-08-11T09:10:08;24.80;70.30
612;DHT22;293;53.888;11.464;2022-08-11T09:12:38;24.80;70.20
612;DHT22;293;53.888;11.464;2022-08-11T09:15:07;24.80;70.30
612;DHT22;293;53.888;11.464;2022-08-11T09:17:37;24.80;70.40
612;DHT22;293;53.888;11.464;2022-08-11T09:20:07;24.90;70.70
612;DHT22;293;53.888;11.464;2022-08-11T09:22:37;24.80;70.60
612;DHT22;293;53.888;11.464;2022-08-11T09:25:25;24.80;71.00
612;DHT22;293;53.888;11.464;2022-08-11T09:28:12;24.90;70.90
612;DHT22;293;53.888;11.464;2022-08-11T09:30:41;24.90;69.80
612;DHT22;293;53.888;11.464;2022-08-11T09:33:10;24.90;70.50
612;DHT22;293;53.888;11.464;2022-08-11T09:35:37;24.90;70.30
612;DHT22;293;53.888;11.464;2022-08-11T09:38:10;24.90;69.60
612;DHT22;293;53.888;11.464;2022-08-11T09:40:58;24.90;69.50
612;DHT22;293;53.888;11.464;2022-08-11T09:43:27;24.90;70.10
612;DHT22;293;53.888;11.464;2022-08-11T09:46:12;25.00;69.70
612;DHT22;293;53.888;11.464;2022-08-11T09:48:43;25.00;69.50
612;DHT22;293;53.888;11.464;2022-08-11T09:51:11;25.00;69.20
612;DHT22;293;53.888;11.464;2022-08-11T09:53:39;25.00;69.10
612;DHT22;293;53.888;11.464;2022-08-11T09:56:10;25.00;69.40
612;DHT22;293;53.888;11.464;2022-08-11T09:59:10;24.90;69.20
612;DHT22;293;53.888;11.464;2022-08-11T10:01:40;25.00;69.90
612;DHT22;293;53.888;11.464;2022-08-11T10:04:11;25.00;70.60
612;DHT22;293;53.888;11.464;2022-08-11T10:06:42;25.00;70.20
612;DHT22;293;53.888;11.464;2022-08-11T10:09:28;25.00;70.50
612;DHT22;293;53.888;11.464;2022-08-11T10:12:01;25.00;69.70
612;DHT22;293;53.888;11.464;2022-08-11T10:14:31;25.10;68.30
612;DHT22;293;53.888;11.464;2022-08-11T10:17:19;25.10;68.70
612;DHT22;293;53.888;11.464;2022-08-11T10:19:48;25.20;68.40
612;DHT22;293;53.888;11.464;2022-08-11T10:22:17;25.30;67.70
612;DHT22;293;53.888;11.464;2022-08-11T10:25:02;25.40;67.70
612;DHT22;293;53.888;11.464;2022-08-11T10:27:49;25.40;66.10
612;DHT22;293;53.888;11.464;2022-08-11T10:30:21;25.50;66.50
612;DHT22;293;53.888;11.464;2022-08-11T10:33:07;25.50;67.10
612;DHT22;293;53.888;11.464;2022-08-11T10:35:51;25.50;66.50
612;DHT22;293;53.888;11.464;2022-08-11T10:38:19;25.40;64.20
612;DHT22;293;53.888;11.464;2022-08-11T10:40:46;25.50;63.90
612;DHT22;293;53.888;11.464;2022-08-11T10:43:38;25.50;63.00
612;DHT22;293;53.888;11.464;2022-08-11T10:46:06;25.60;62.30
612;DHT22;293;53.888;11.464;2022-08-11T10:48:54;25.60;62.80
612;DHT22;293;53.888;11.464;2022-08-11T10:51:21;25.60;62.00
612;DHT22;293;53.888;11.464;2022-08-11T10:54:07;25.60;62.00
612;DHT22;293;53.888;11.464;2022-08-11T10:56:53;25.50;61.90
612;DHT22;293;53.888;11.464;2022-08-11T10:59:39;25.60;61.80
612;DHT22;293;53.888;11.464;2022-08-11T11:02:10;25.50;62.40
612;DHT22;293;53.888;11.464;2022-08-11T11:04:51;25.60;62.80
612;DHT22;293;53.888;11.464;2022-08-11T11:07:26;25.70;61.70
612;DHT22;293;53.888;11.464;2022-08-11T11:09:56;25.70;62.70
612;DHT22;293;53.888;11.464;2022-08-11T11:12:28;25.70;61.50
612;DHT22;293;53.888;11.464;2022-08-11T11:15:18;25.70;61.90
612;DHT22;293;53.888;11.464;2022-08-11T11:18:06;25.60;62.20
612;DHT22;293;53.888;11.464;2022-08-11T11:20:39;25.70;62.80
612;DHT22;293;53.888;11.464;2022-08-11T11:23:10;25.70;62.70
612;DHT22;293;53.888;11.464;2022-08-11T11:28:58;25.80;62.10
612;DHT22;293;53.888;11.464;2022-08-11T11:31:40;25.90;61.30
612;DHT22;293;53.888;11.464;2022-08-11T11:34:20;25.90;60.30
612;DHT22;293;53.888;11.464;2022-08-11T11:36:52;25.80;60.10
612;DHT22;293;53.888;11.464;2022-08-11T11:39:21;25.90;60.20
612;DHT22;293;53.888;11.464;2022-08-11T11:41:50;25.80;61.00
612;DHT22;293;53.888;11.464;2022-08-11T11:44:19;25.70;61.60
612;DHT22;293;53.888;11.464;2022-08-11T11:46:49;25.80;60.40
612;DHT22;293;53.888;11.464;2022-08-11T11:49:18;25.80;60.60
612;DHT22;293;53.888;11.464;2022-08-11T11:51:46;25.80;61.50
612;DHT22;293;53.888;11.464;2022-08-11T11:54:13;25.80;61.40
612;DHT22;293;53.888;11.464;2022-08-11T11:56:42;25.80;62.30
612;DHT22;293;53.888;11.464;2022-08-11T11:59:11;25.70;63.60
612;DHT22;293;53.888;11.464;2022-08-11T12:01:57;25.70;64.20
612;DHT22;293;53.888;11.464;2022-08-11T12:04:25;25.70;65.30
612;DHT22;293;53.888;11.464;2022-08-11T12:06:53;25.70;64.50
612;DHT22;293;53.888;11.464;2022-08-11T12:09:41;25.80;65.00
612;DHT22;293;53.888;11.464;2022-08-11T12:12:08;25.80;64.40
612;DHT22;293;53.888;11.464;2022-08-11T12:14:53;25.80;63.70
612;DHT22;293;53.888;11.464;2022-08-11T12:17:22;25.70;63.50
612;DHT22;293;53.888;11.464;2022-08-11T12:19:49;25.70;64.20
612;DHT22;293;53.888;11.464;2022-08-11T12:22:17;25.70;62.90
612;DHT22;293;53.888;11.464;2022-08-11T12:25:02;25.80;62.30
612;DHT22;293;53.888;11.464;2022-08-11T12:27:48;25.80;62.60
612;DHT22;293;53.888;11.464;2022-08-11T12:30:15;25.60;63.20
612;DHT22;293;53.888;11.464;2022-08-11T12:32:46;25.50;62.60
612;DHT22;293;53.888;11.464;2022-08-11T12:35:14;25.60;62.20
612;DHT22;293;53.888;11.464;2022-08-11T12:37:44;25.60;62.80
612;DHT22;293;53.888;11.464;2022-08-11T12:40:13;25.70;62.00
612;DHT22;293;53.888;11.464;2022-08-11T12:43:00;25.60;61.80
612;DHT22;293;53.888;11.464;2022-08-11T12:45:48;25.60;62.20
612;DHT22;293;53.888;11.464;2022-08-11T12:48:20;25.70;61.50
612;DHT22;293;53.888;11.464;2022-08-11T12:51:08;25.60;62.10
612;DHT22;293;53.888;11.464;2022-08-11T12:53:56;25.50;63.90
612;DHT22;293;53.888;11.464;2022-08-11T12:56:32;25.40;64.00
612;DHT22;293;53.888;11.464;2022-08-11T12:59:20;25.40;60.70
612;DHT22;293;53.888;11.464;2022-08-11T13:02:06;25.40;59.90
612;DHT22;293;53.888;11.464;2022-08-11T13:04:52;25.30;59.50
612;DHT22;293;53.888;11.464;2022-08-11T13:07:24;25.20;60.60
612;DHT22;293;53.888;11.464;2022-08-11T13:09:52;25.30;61.20
612;DHT22;293;53.888;11.464;2022-08-11T13:12:21;25.30;59.40
612;DHT22;293;53.888;11.464;2022-08-11T13:15:08;25.20;59.50
612;DHT22;293;53.888;11.464;2022-08-11T13:17:36;25.30;59.70
612;DHT22;293;53.888;11.464;2022-08-11T13:20:07;25.30;60.00
612;DHT22;293;53.888;11.464;2022-08-11T13:22:35;25.40;60.30
612;DHT22;293;53.888;11.464;2022-08-11T13:25:03;25.40;60.30
612;DHT22;293;53.888;11.464;2022-08-11T13:27:31;25.50;60.80
612;DHT22;293;53.888;11.464;2022-08-11T13:29:59;25.50;60.50
612;DHT22;293;53.888;11.464;2022-08-11T13:32:44;25.50;59.90
612;DHT22;293;53.888;11.464;2022-08-11T13:35:13;25.50;60.90
612;DHT22;293;53.888;11.464;2022-08-11T13:37:43;25.50;61.30
612;DHT22;293;53.888;11.464;2022-08-11T13:40:12;25.50;59.80
612;DHT22;293;53.888;11.464;2022-08-11T13:42:40;25.50;61.40
612;DHT22;293;53.888;11.464;2022-08-11T13:45:07;25.40;60.60
612;DHT22;293;53.888;11.464;2022-08-11T13:47:36;25.40;62.00
612;DHT22;293;53.888;11.464;2022-08-11T13:50:05;25.30;62.50
612;DHT22;293;53.888;11.464;2022-08-11T13:52:36;25.40;62.60
612;DHT22;293;53.888;11.464;2022-08-11T13:55:06;25.40;62.90
612;DHT22;293;53.888;11.464;2022-08-11T13:57:35;25.30;64.10
612;DHT22;293;53.888;11.464;2022-08-11T14:00:04;25.50;65.20
612;DHT22;293;53.888;11.464;2022-08-11T14:02:41;25.50;64.00
612;DHT22;293;53.888;11.464;2022-08-11T14:05:12;25.50;65.80
612;DHT22;293;53.888;11.464;2022-08-11T14:07:47;25.50;66.80
612;DHT22;293;53.888;11.464;2022-08-11T14:10:16;25.60;67.10
612;DHT22;293;53.888;11.464;2022-08-11T14:12:54;25.50;66.30
612;DHT22;293;53.888;11.464;2022-08-11T14:15:42;25.60;66.40
612;DHT22;293;53.888;11.464;2022-08-11T14:18:16;25.60;66.00
612;DHT22;293;53.888;11.464;2022-08-11T14:20:44;25.60;66.30
612;DHT22;293;53.888;11.464;2022-08-11T14:23:36;25.70;65.30
612;DHT22;293;53.888;11.464;2022-08-11T14:26:04;25.80;65.60
612;DHT22;293;53.888;11.464;2022-08-11T14:28:51;25.80;66.70
612;DHT22;293;53.888;11.464;2022-08-11T14:31:20;25.80;66.50
612;DHT22;293;53.888;11.464;2022-08-11T14:33:47;25.80;67.10
612;DHT22;293;53.888;11.464;2022-08-11T14:36:15;25.80;68.20
612;DHT22;293;53.888;11.464;2022-08-11T14:38:44;25.70;68.00
612;DHT22;293;53.888;11.464;2022-08-11T14:41:11;25.80;67.80
612;DHT22;293;53.888;11.464;2022-08-11T14:43:56;25.80;67.60
612;DHT22;293;53.888;11.464;2022-08-11T14:46:41;25.70;68.20
612;DHT22;293;53.888;11.464;2022-08-11T14:49:27;25.70;68.60
612;DHT22;293;53.888;11.464;2022-08-11T14:51:55;25.70;68.60
612;DHT22;293;53.888;11.464;2022-08-11T14:54:27;25.70;68.50
612;DHT22;293;53.888;11.464;2022-08-11T14:57:12;25.60;69.20
612;DHT22;293;53.888;11.464;2022-08-11T14:59:39;25.50;69.90
612;DHT22;293;53.888;11.464;2022-08-11T15:02:08;25.50;69.20
612;DHT22;293;53.888;11.464;2022-08-11T15:04:55;25.60;67.90
612;DHT22;293;53.888;11.464;2022-08-11T15:07:24;25.50;69.40
612;DHT22;293;53.888;11.464;2022-08-11T15:09:56;25.40;69.20
612;DHT22;293;53.888;11.464;2022-08-11T15:12:24;25.40;68.20
612;DHT22;293;53.888;11.464;2022-08-11T15:14:51;25.30;68.80
612;DHT22;293;53.888;11.464;2022-08-11T15:17:37;25.40;69.20
612;DHT22;293;53.888;11.464;2022-08-11T15:20:08;25.40;68.90
612;DHT22;293;53.888;11.464;2022-08-11T15:22:53;25.40;68.90
612;DHT22;293;53.888;11.464;2022-08-11T15:25:42;25.30;68.60
612;DHT22;293;53.888;11.464;2022-08-11T15:28:12;25.40;68.80
612;DHT22;293;53.888;11.464;2022-08-11T15:30:58;25.30;69.10
612;DHT22;293;53.888;11.464;2022-08-11T15:33:46;25.30;69.40
612;DHT22;293;53.888;11.464;2022-08-11T15:36:33;25.30;69.60
612;DHT22;293;53.888;11.464;2022-08-11T15:39:19;25.30;69.90
612;DHT22;293;53.888;11.464;2022-08-11T15:41:52;25.30;70.50
612;DHT22;293;53.888;11.464;2022-08-11T15:44:40;25.30;71.10
612;DHT22;293;53.888;11.464;2022-08-11T15:47:32;25.40;71.70
612;DHT22;293;53.888;11.464;2022-08-11T15:50:01;25.40;71.60
612;DHT22;293;53.888;11.464;2022-08-11T15:52:33;25.50;71.50
612;DHT22;293;53.888;11.464;2022-08-11T15:55:05;25.40;71.70
612;DHT22;293;53.888;11.464;2022-08-11T15:57:35;25.40;72.40
612;DHT22;293;53.888;11.464;2022-08-11T16:00:21;25.40;72.80
612;DHT22;293;53.888;11.464;2022-08-11T16:03:06;25.40;73.20
612;DHT22;293;53.888;11.464;2022-08-11T16:05:51;25.30;73.70
612;DHT22;293;53.888;11.464;2022-08-11T16:08:20;25.30;73.30
612;DHT22;293;53.888;11.464;2022-08-11T16:10:49;25.30;73.40
612;DHT22;293;53.888;11.464;2022-08-11T16:13:20;25.30;73.60
612;DHT22;293;53.888;11.464;2022-08-11T16:16:07;25.20;74.10
612;DHT22;293;53.888;11.464;2022-08-11T16:18:44;25.30;73.20
612;DHT22;293;53.888;11.464;2022-08-11T16:21:15;25.40;73.50
612;DHT22;293;53.888;11.464;2022-08-11T16:23:44;25.40;73.20
612;DHT22;293;53.888;11.464;2022-08-11T16:26:12;25.50;73.40
612;DHT22;293;53.888;11.464;2022-08-11T16:28:42;25.50;73.00
612;DHT22;293;53.888;11.464;2022-08-11T16:31:11;25.60;73.00
612;DHT22;293;53.888;11.464;2022-08-11T16:33:40;25.70;72.60
612;DHT22;293;53.888;11.464;2022-08-11T16:36:09;25.60;70.70
612;DHT22;293;53.888;11.464;2022-08-11T16:38:55;25.60;70.50
612;DHT22;293;53.888;11.464;2022-08-11T16:41:25;25.60;70.20
612;DHT22;293;53.888;11.464;2022-08-11T16:44:13;25.60;70.00
612;DHT22;293;53.888;11.464;2022-08-11T16:46:59;25.60;70.40
612;DHT22;293;53.888;11.464;2022-08-11T16:49:30;25.60;70.00
612;DHT22;293;53.888;11.464;2022-08-11T16:51:58;25.50;69.80
612;DHT22;293;53.888;11.464;2022-08-11T16:54:27;25.50;69.80
612;DHT22;293;53.888;11.464;2022-08-11T16:56:55;25.50;70.00
612;DHT22;293;53.888;11.464;2022-08-11T16:59:45;25.40;69.80
612;DHT22;293;53.888;11.464;2022-08-11T17:02:15;25.50;69.60
612;DHT22;293;53.888;11.464;2022-08-11T17:05:09;25.60;69.70
612;DHT22;293;53.888;11.464;2022-08-11T17:07:55;25.60;70.20
612;DHT22;293;53.888;11.464;2022-08-11T17:10:49;25.50;69.80
612;DHT22;293;53.888;11.464;2022-08-11T17:13:36;25.40;69.90
612;DHT22;293;53.888;11.464;2022-08-11T17:16:09;25.40;69.90
612;DHT22;293;53.888;11.464;2022-08-11T17:18:41;25.30;70.00
612;DHT22;293;53.888;11.464;2022-08-11T17:21:12;25.30;69.50
612;DHT22;293;53.888;11.464;2022-08-11T17:23:47;25.30;69.40
612;DHT22;293;53.888;11.464;2022-08-11T17:26:17;25.30;69.60
612;DHT22;293;53.888;11.464;2022-08-11T17:28:48;25.20;70.40
612;DHT22;293;53.888;11.464;2022-08-11T17:31:19;25.20;70.60
612;DHT22;293;53.888;11.464;2022-08-11T17:34:05;25.10;69.90
612;DHT22;293;53.888;11.464;2022-08-11T17:36:51;25.10;70.20
612;DHT22;293;53.888;11.464;2022-08-11T17:39:19;25.10;71.10
612;DHT22;293;53.888;11.464;2022-08-11T17:41:46;25.00;71.30
612;DHT22;293;53.888;11.464;2022-08-11T17:44:32;25.00;71.00
612;DHT22;293;53.888;11.464;2022-08-11T17:47:18;24.90;71.30
612;DHT22;293;53.888;11.464;2022-08-11T17:50:05;24.90;71.40
612;DHT22;293;53.888;11.464;2022-08-11T17:52:33;24.80;71.40
612;DHT22;293;53.888;11.464;2022-08-11T17:55:19;24.70;71.80
612;DHT22;293;53.888;11.464;2022-08-11T17:58:05;24.70;72.00
612;DHT22;293;53.888;11.464;2022-08-11T18:00:52;24.60;72.10
612;DHT22;293;53.888;11.464;2022-08-11T18:03:23;24.60;72.10
612;DHT22;293;53.888;11.464;2022-08-11T18:06:00;24.60;72.30
612;DHT22;293;53.888;11.464;2022-08-11T18:08:29;24.60;72.50
612;DHT22;293;53.888;11.464;2022-08-11T18:11:15;24.60;72.50